Time;durP1;ratioP1;P1;durP2;ratioP2;P2;SDS_P1;SDS_P2;PMS_P1;PMS_P2;Temp;Humidity;BMP_temperature;BMP_pressure;BME280_temperature;BME280_humidity;BME280_pressure;Samples;Min_cycle;Max_cycle;Signal;HPM_P1;HPM_P2
2023/03/04 00:01:03;;;;;;;93.53;49.55;;;;;;;;;;5018089;28;20032;-77
2023/03/04 00:03:29;;;;;;;92.68;49.67;;;;;;;;;;5029506;28;20542;-76
2023/03/04 00:05:55;;;;;;;67.50;37.03;;;;;;;;;;5028701;28;20025;-77
2023/03/04 00:08:21;;;;;;;65.50;37.78;;;;;;;;;;5028791;28;20033;-77
2023/03/04 00:10:47;;;;;;;59.08;34.78;;;;;;;;;;5009583;28;20093;-77
2023/03/04 00:13:13;;;;;;;58.47;35.35;;;;;;;;;;5016571;28;20037;-76
2023/03/04 00:15:39;;;;;;;59.85;36.05;;;;;;;;;;5033981;28;20041;-77
2023/03/04 00:18:05;;;;;;;62.35;36.88;;;;;;;;;;5031273;28;20030;-77
2023/03/04 00:20:31;;;;;;;62.22;35.95;;;;;;;;;;5022219;28;20038;-76
2023/03/04 00:22:57;;;;;;;58.95;33.08;;;;;;;;;;5025585;28;20030;-77
2023/03/04 00:25:22;;;;;;;62.40;35.47;;;;;;;;;;5014344;28;20612;-76
2023/03/04 00:27:49;;;;;;;57.20;32.95;;;;;;;;;;5013317;28;20112;-76
2023/03/04 00:30:15;;;;;;;62.05;38.42;;;;;;;;;;5026233;28;20418;-77
2023/03/04 00:32:41;;;;;;;59.05;35.45;;;;;;;;;;5024899;28;20041;-77
2023/03/04 00:35:07;;;;;;;59.60;33.65;;;;;;;;;;5029419;28;20038;-76
2023/03/04 00:37:33;;;;;;;62.92;35.65;;;;;;;;;;5032760;28;20044;-77
2023/03/04 00:39:59;;;;;;;61.58;35.90;;;;;;;;;;5024726;28;20112;-77
2023/03/04 00:42:25;;;;;;;63.22;37.03;;;;;;;;;;5012636;28;20026;-77
2023/03/04 00:44:51;;;;;;;65.13;36.80;;;;;;;;;;5017379;28;20083;-77
2023/03/04 00:47:17;;;;;;;62.95;37.60;;;;;;;;;;5013255;28;20084;-77
2023/03/04 00:49:43;;;;;;;65.30;37.10;;;;;;;;;;5029774;28;20033;-76
2023/03/04 00:52:09;;;;;;;70.25;40.25;;;;;;;;;;5013182;28;20467;-76
2023/03/04 00:54:35;;;;;;;63.28;36.50;;;;;;;;;;5012656;28;20061;-76
2023/03/04 00:57:01;;;;;;;69.15;38.88;;;;;;;;;;5018140;28;20033;-77
2023/03/04 00:59:27;;;;;;;67.47;37.03;;;;;;;;;;5016497;28;20072;-76
2023/03/04 01:01:53;;;;;;;71.75;40.38;;;;;;;;;;5019515;28;20030;-76
2023/03/04 01:04:19;;;;;;;63.70;37.22;;;;;;;;;;5032190;28;20038;-77
2023/03/04 01:06:45;;;;;;;75.75;44.08;;;;;;;;;;5018501;28;20357;-76
2023/03/04 01:09:11;;;;;;;68.13;37.20;;;;;;;;;;5032556;28;20044;-77
2023/03/04 01:11:37;;;;;;;65.28;37.55;;;;;;;;;;5023942;28;20032;-77
2023/03/04 01:14:03;;;;;;;70.28;41.03;;;;;;;;;;5032288;28;20571;-77
2023/03/04 01:16:29;;;;;;;65.90;39.38;;;;;;;;;;5031895;28;20017;-77
2023/03/04 01:18:55;;;;;;;65.35;37.72;;;;;;;;;;5032286;28;20076;-76
2023/03/04 01:21:21;;;;;;;66.85;39.05;;;;;;;;;;5023886;28;20033;-77
2023/03/04 01:23:47;;;;;;;64.28;36.65;;;;;;;;;;5030720;28;20042;-77
2023/03/04 01:26:13;;;;;;;62.47;36.10;;;;;;;;;;5031668;28;20022;-77
2023/03/04 01:28:39;;;;;;;64.70;38.78;;;;;;;;;;5046246;28;20040;-76
2023/03/04 01:31:05;;;;;;;73.47;40.88;;;;;;;;;;5051874;28;20032;-77
2023/03/04 01:33:31;;;;;;;68.60;40.72;;;;;;;;;;5037623;28;20104;-77
2023/03/04 01:35:57;;;;;;;73.25;39.90;;;;;;;;;;5032177;28;20571;-77
2023/03/04 01:38:23;;;;;;;66.80;38.90;;;;;;;;;;5029131;28;20041;-77
2023/03/04 01:40:50;;;;;;;70.85;39.40;;;;;;;;;;5022633;28;20033;-77
2023/03/04 01:43:24;;;;;;;70.57;39.28;;;;;;;;;;5022949;28;20639;-77
2023/03/04 01:45:51;;;;;;;64.93;37.00;;;;;;;;;;5031682;28;20466;-77
2023/03/04 01:48:19;;;;;;;69.03;38.92;;;;;;;;;;5030858;28;20041;-77
2023/03/04 01:50:45;;;;;;;59.95;34.75;;;;;;;;;;5029771;28;20080;-77
2023/03/04 01:53:17;;;;;;;63.92;35.13;;;;;;;;;;5026059;28;20116;-77
2023/03/04 01:55:43;;;;;;;67.10;36.55;;;;;;;;;;5051708;28;20047;-76
2023/03/04 01:58:12;;;;;;;60.60;36.83;;;;;;;;;;5044009;28;20391;-76
2023/03/04 02:00:39;;;;;;;59.38;34.05;;;;;;;;;;5031760;28;20498;-77
2023/03/04 02:03:08;;;;;;;59.42;35.15;;;;;;;;;;5021183;28;20026;-77
2023/03/04 02:05:35;;;;;;;58.90;33.92;;;;;;;;;;5021244;28;20034;-76
2023/03/04 02:08:03;;;;;;;66.28;37.22;;;;;;;;;;5011486;28;20104;-77
2023/03/04 02:10:29;;;;;;;68.88;37.40;;;;;;;;;;5030535;28;20567;-77
2023/03/04 02:12:56;;;;;;;68.75;39.97;;;;;;;;;;5021095;28;20033;-78
2023/03/04 02:15:22;;;;;;;66.00;37.28;;;;;;;;;;5027610;28;20115;-77
2023/03/04 02:17:49;;;;;;;65.63;38.72;;;;;;;;;;5026639;28;20095;-77
2023/03/04 02:20:19;;;;;;;63.03;36.53;;;;;;;;;;5030648;28;20413;-77
2023/03/04 02:23:11;;;;;;;58.15;34.10;;;;;;;;;;5031250;28;20156;-77
2023/03/04 02:25:42;;;;;;;56.92;32.35;;;;;;;;;;5041810;28;20049;-76
2023/03/04 02:28:08;;;;;;;58.63;35.30;;;;;;;;;;5013639;28;20030;-77
2023/03/04 02:30:34;;;;;;;53.72;31.45;;;;;;;;;;5028420;28;20068;-76
2023/03/04 02:33:00;;;;;;;53.97;31.30;;;;;;;;;;5030888;28;20041;-77
2023/03/04 02:35:26;;;;;;;52.97;30.52;;;;;;;;;;5030544;28;20068;-77
2023/03/04 02:37:52;;;;;;;57.78;33.60;;;;;;;;;;5026525;28;20112;-77
2023/03/04 02:40:22;;;;;;;54.90;30.50;;;;;;;;;;5021733;28;20040;-76
2023/03/04 02:42:48;;;;;;;57.03;34.50;;;;;;;;;;5026873;28;20108;-77
2023/03/04 02:45:33;;;;;;;61.33;32.40;;;;;;;;;;5017251;28;20164;-77
2023/03/04 02:47:59;;;;;;;61.05;34.42;;;;;;;;;;5031346;28;20079;-77
2023/03/04 02:50:26;;;;;;;56.30;32.55;;;;;;;;;;5022427;28;20824;-77
2023/03/04 02:52:52;;;;;;;55.42;33.25;;;;;;;;;;5030658;28;20378;-77
2023/03/04 02:55:18;;;;;;;52.88;30.60;;;;;;;;;;5021769;28;20041;-77
2023/03/04 02:57:44;;;;;;;53.78;32.22;;;;;;;;;;5030344;28;20072;-77
2023/03/04 03:00:10;;;;;;;54.28;31.15;;;;;;;;;;5030154;28;20076;-77
2023/03/04 03:02:36;;;;;;;58.40;30.48;;;;;;;;;;5030184;28;20069;-77
2023/03/04 03:05:02;;;;;;;54.90;31.58;;;;;;;;;;5021129;28;20061;-77
2023/03/04 03:07:28;;;;;;;57.30;31.67;;;;;;;;;;5012009;28;20061;-77
2023/03/04 03:09:54;;;;;;;53.83;30.02;;;;;;;;;;5010661;28;20052;-77
2023/03/04 03:12:20;;;;;;;60.67;33.38;;;;;;;;;;5026112;28;20033;-77
2023/03/04 03:14:46;;;;;;;57.35;33.88;;;;;;;;;;5010802;28;20491;-77
2023/03/04 03:17:12;;;;;;;58.90;35.13;;;;;;;;;;5023588;28;20040;-77
2023/03/04 03:19:38;;;;;;;59.65;32.80;;;;;;;;;;5023603;28;20053;-77
2023/03/04 03:22:04;;;;;;;55.22;32.17;;;;;;;;;;5028070;28;20033;-77
2023/03/04 03:24:30;;;;;;;58.88;32.08;;;;;;;;;;5030259;28;20399;-77
2023/03/04 03:26:56;;;;;;;56.28;32.63;;;;;;;;;;5024745;28;20030;-77
2023/03/04 03:29:22;;;;;;;59.78;35.35;;;;;;;;;;5029848;28;20038;-77
2023/03/04 03:31:48;;;;;;;63.53;36.67;;;;;;;;;;5029088;28;20036;-77
2023/03/04 03:34:14;;;;;;;62.88;36.78;;;;;;;;;;5030039;28;20495;-77
2023/03/04 03:36:40;;;;;;;60.53;33.10;;;;;;;;;;5020559;28;20033;-77
2023/03/04 03:39:06;;;;;;;62.65;34.17;;;;;;;;;;5010219;28;20037;-77
2023/03/04 03:41:32;;;;;;;59.40;33.30;;;;;;;;;;5022259;28;20025;-77
2023/03/04 03:43:58;;;;;;;61.20;33.83;;;;;;;;;;5036675;28;20036;-77
2023/03/04 03:46:24;;;;;;;58.33;32.95;;;;;;;;;;5021088;28;20060;-77
2023/03/04 03:48:50;;;;;;;57.88;32.15;;;;;;;;;;5029730;28;20033;-77
2023/03/04 03:51:16;;;;;;;51.92;29.05;;;;;;;;;;5016470;28;20053;-77
2023/03/04 03:53:42;;;;;;;53.75;30.20;;;;;;;;;;5029523;28;20095;-77
2023/03/04 03:56:08;;;;;;;55.45;33.38;;;;;;;;;;5025192;28;20029;-77
2023/03/04 03:58:34;;;;;;;59.28;34.15;;;;;;;;;;5021747;28;20664;-77
2023/03/04 04:01:00;;;;;;;59.10;32.83;;;;;;;;;;5020293;28;20040;-77
2023/03/04 04:03:26;;;;;;;59.05;34.78;;;;;;;;;;5020671;28;20026;-77
2023/03/04 04:05:52;;;;;;;60.35;33.90;;;;;;;;;;5029285;28;20068;-77
2023/03/04 04:08:18;;;;;;;56.08;32.65;;;;;;;;;;5016037;28;20034;-76
2023/03/04 04:10:44;;;;;;;56.08;30.92;;;;;;;;;;5008566;28;20464;-77
2023/03/04 04:13:11;;;;;;;55.53;32.53;;;;;;;;;;5019290;28;20037;-77
2023/03/04 04:15:37;;;;;;;59.40;34.03;;;;;;;;;;5018933;28;20052;-77
2023/03/04 04:18:04;;;;;;;53.90;31.35;;;;;;;;;;5013983;28;20044;-77
2023/03/04 04:20:30;;;;;;;54.53;31.98;;;;;;;;;;5010229;28;20811;-77
2023/03/04 04:22:56;;;;;;;60.90;32.65;;;;;;;;;;5014891;28;20026;-77
2023/03/04 04:25:22;;;;;;;55.13;31.63;;;;;;;;;;5029898;28;20033;-77
2023/03/04 04:27:48;;;;;;;51.10;30.13;;;;;;;;;;5028555;28;20383;-77
2023/03/04 04:30:15;;;;;;;55.65;31.35;;;;;;;;;;5029487;28;20175;-77
2023/03/04 04:32:41;;;;;;;55.60;29.02;;;;;;;;;;5024194;28;20641;-77
2023/03/04 04:35:07;;;;;;;53.80;30.33;;;;;;;;;;5029960;28;20161;-77
2023/03/04 04:37:33;;;;;;;47.33;29.10;;;;;;;;;;5027519;28;20076;-77
2023/03/04 04:39:59;;;;;;;51.30;29.67;;;;;;;;;;5039815;28;20037;-77
2023/03/04 04:42:25;;;;;;;51.17;28.88;;;;;;;;;;5012640;28;20030;-77
2023/03/04 04:44:51;;;;;;;58.28;33.13;;;;;;;;;;5043649;28;20068;-77
2023/03/04 04:47:18;;;;;;;61.67;35.80;;;;;;;;;;5032760;28;20029;-77
2023/03/04 04:49:44;;;;;;;64.25;36.70;;;;;;;;;;5038605;28;20037;-77
2023/03/04 04:52:10;;;;;;;65.43;37.72;;;;;;;;;;5035100;28;20037;-77
2023/03/04 04:54:36;;;;;;;70.32;38.25;;;;;;;;;;5027952;28;20033;-77
2023/03/04 04:57:02;;;;;;;61.00;35.15;;;;;;;;;;5012935;28;20093;-77
2023/03/04 04:59:28;;;;;;;67.70;36.95;;;;;;;;;;5009461;28;20072;-77
2023/03/04 05:01:54;;;;;;;63.25;35.58;;;;;;;;;;5016164;28;20496;-77
2023/03/04 05:04:20;;;;;;;68.00;36.33;;;;;;;;;;5022290;28;20033;-77
2023/03/04 05:06:46;;;;;;;68.78;38.63;;;;;;;;;;5052899;28;20833;-77
2023/03/04 05:09:12;;;;;;;81.75;45.13;;;;;;;;;;5049168;28;20049;-77
2023/03/04 05:11:38;;;;;;;69.13;37.10;;;;;;;;;;5032505;28;20525;-77
2023/03/04 05:14:04;;;;;;;68.03;38.22;;;;;;;;;;5032098;28;20120;-76
2023/03/04 05:16:30;;;;;;;73.10;40.58;;;;;;;;;;5032328;28;20037;-77
2023/03/04 05:18:56;;;;;;;74.57;41.72;;;;;;;;;;5032268;28;20682;-76
2023/03/04 05:21:22;;;;;;;72.35;40.58;;;;;;;;;;5031814;28;20101;-77
2023/03/04 05:23:48;;;;;;;74.65;42.30;;;;;;;;;;5026236;28;20423;-77
2023/03/04 05:26:16;;;;;;;69.85;39.75;;;;;;;;;;5022910;28;20132;-77
2023/03/04 05:28:42;;;;;;;67.80;39.88;;;;;;;;;;5031555;28;20108;-77
2023/03/04 05:31:08;;;;;;;73.60;39.85;;;;;;;;;;5031023;28;20104;-77
2023/03/04 05:33:34;;;;;;;70.05;38.10;;;;;;;;;;5027493;28;20040;-77
2023/03/04 05:36:00;;;;;;;64.20;36.08;;;;;;;;;;5026332;28;20464;-77
2023/03/04 05:38:26;;;;;;;65.97;37.08;;;;;;;;;;5016465;28;20029;-77
2023/03/04 05:40:57;;;;;;;68.05;38.80;;;;;;;;;;5031336;28;20030;-77
2023/03/04 05:43:23;;;;;;;55.45;32.30;;;;;;;;;;5031680;28;20021;-77
2023/03/04 05:45:49;;;;;;;59.72;33.42;;;;;;;;;;5030643;28;20126;-77
2023/03/04 05:48:15;;;;;;;60.40;35.05;;;;;;;;;;5023450;28;20084;-77
2023/03/04 05:50:41;;;;;;;57.42;32.42;;;;;;;;;;5015345;28;20847;-77
2023/03/04 05:53:07;;;;;;;60.30;33.17;;;;;;;;;;5031759;28;20044;-77
2023/03/04 05:55:34;;;;;;;55.17;34.05;;;;;;;;;;5030522;28;20037;-77
2023/03/04 05:58:00;;;;;;;53.60;32.70;;;;;;;;;;5031959;28;20041;-77
2023/03/04 06:00:26;;;;;;;58.03;31.73;;;;;;;;;;5013490;28;20125;-77
2023/03/04 06:02:52;;;;;;;55.40;30.92;;;;;;;;;;5029087;28;20029;-77
2023/03/04 06:05:18;;;;;;;54.92;31.42;;;;;;;;;;5027205;28;20029;-77
2023/03/04 06:07:44;;;;;;;52.92;30.00;;;;;;;;;;5031101;28;20042;-77
2023/03/04 06:10:12;;;;;;;54.08;31.27;;;;;;;;;;5022746;28;20066;-77
2023/03/04 06:12:38;;;;;;;61.58;34.28;;;;;;;;;;5029406;28;20041;-77
2023/03/04 06:15:05;;;;;;;59.22;34.17;;;;;;;;;;5030411;28;20037;-77
2023/03/04 06:17:31;;;;;;;60.65;34.13;;;;;;;;;;5030543;28;20121;-77
2023/03/04 06:19:57;;;;;;;56.28;32.58;;;;;;;;;;5030202;28;20128;-77
2023/03/04 06:22:23;;;;;;;67.35;36.85;;;;;;;;;;5029028;28;20578;-77
2023/03/04 06:24:49;;;;;;;64.07;36.55;;;;;;;;;;5031164;28;20033;-77
2023/03/04 06:27:15;;;;;;;67.50;37.10;;;;;;;;;;5028878;28;20069;-77
2023/03/04 06:29:42;;;;;;;65.13;35.03;;;;;;;;;;5016911;28;20112;-77
2023/03/04 06:32:08;;;;;;;66.10;37.65;;;;;;;;;;5028968;28;20178;-77
2023/03/04 06:34:35;;;;;;;72.38;39.67;;;;;;;;;;5031033;28;20477;-77
2023/03/04 06:37:01;;;;;;;76.00;41.60;;;;;;;;;;5028174;28;20164;-77
2023/03/04 06:39:27;;;;;;;72.82;39.28;;;;;;;;;;5026440;28;20058;-76
2023/03/04 06:41:53;;;;;;;71.53;40.50;;;;;;;;;;5019591;28;20026;-76
2023/03/04 06:44:19;;;;;;;69.13;39.65;;;;;;;;;;5029460;28;20049;-77
2023/03/04 06:46:45;;;;;;;68.53;36.63;;;;;;;;;;5028068;28;20065;-78
2023/03/04 06:49:11;;;;;;;76.18;41.72;;;;;;;;;;5029389;28;20045;-77
2023/03/04 06:51:37;;;;;;;70.57;38.90;;;;;;;;;;5029773;28;20032;-76
2023/03/04 06:54:03;;;;;;;68.88;39.63;;;;;;;;;;5022422;28;20033;-77
2023/03/04 06:56:29;;;;;;;72.38;41.53;;;;;;;;;;5028867;28;20029;-77
2023/03/04 06:58:55;;;;;;;78.40;42.67;;;;;;;;;;5029731;28;20041;-77
2023/03/04 07:01:23;;;;;;;76.97;42.22;;;;;;;;;;5028666;28;20033;-77
2023/03/04 07:03:49;;;;;;;77.60;41.03;;;;;;;;;;5024253;28;20030;-77
2023/03/04 07:06:16;;;;;;;73.57;41.33;;;;;;;;;;5029509;28;20554;-77
2023/03/04 07:08:42;;;;;;;67.55;38.25;;;;;;;;;;5020828;28;20523;-77
2023/03/04 07:11:08;;;;;;;75.43;39.40;;;;;;;;;;5026295;28;20072;-77
2023/03/04 07:13:37;;;;;;;71.32;38.35;;;;;;;;;;5025416;28;20029;-77
2023/03/04 07:16:03;;;;;;;74.47;39.45;;;;;;;;;;5029056;28;20029;-78
2023/03/04 07:18:29;;;;;;;63.38;35.40;;;;;;;;;;5023473;28;20033;-77
2023/03/04 07:20:55;;;;;;;59.17;33.28;;;;;;;;;;5026968;28;20090;-77
2023/03/04 07:23:21;;;;;;;60.92;32.22;;;;;;;;;;5028344;28;20125;-78
2023/03/04 07:25:48;;;;;;;64.25;33.22;;;;;;;;;;5029858;28;20132;-78
2023/03/04 07:28:14;;;;;;;57.00;31.52;;;;;;;;;;5028757;28;20493;-77
2023/03/04 07:30:40;;;;;;;72.28;39.92;;;;;;;;;;5029946;28;20042;-78
2023/03/04 07:33:06;;;;;;;68.85;38.38;;;;;;;;;;5028779;28;20036;-77
2023/03/04 07:35:32;;;;;;;75.97;41.80;;;;;;;;;;5027771;28;20083;-77
2023/03/04 07:37:58;;;;;;;67.18;39.10;;;;;;;;;;5026666;28;20053;-77
2023/03/04 07:40:24;;;;;;;77.47;43.67;;;;;;;;;;5025905;28;20041;-77
2023/03/04 07:42:50;;;;;;;79.00;41.78;;;;;;;;;;5027790;28;20087;-77
2023/03/04 07:45:16;;;;;;;65.55;37.45;;;;;;;;;;5026798;28;20054;-77
2023/03/04 07:47:42;;;;;;;77.18;41.30;;;;;;;;;;5028195;28;20423;-77
2023/03/04 07:50:09;;;;;;;76.78;41.92;;;;;;;;;;5025426;28;20784;-77
2023/03/04 07:52:39;;;;;;;73.15;41.83;;;;;;;;;;5027978;28;20029;-77
2023/03/04 07:55:05;;;;;;;76.00;43.45;;;;;;;;;;5026600;28;20037;-77
2023/03/04 07:57:31;;;;;;;73.32;41.03;;;;;;;;;;5027932;28;20394;-76
2023/03/04 07:59:57;;;;;;;76.75;43.60;;;;;;;;;;5019653;28;20037;-76
2023/03/04 08:02:23;;;;;;;70.95;38.92;;;;;;;;;;5027994;28;20036;-77
2023/03/04 08:04:49;;;;;;;71.15;38.78;;;;;;;;;;5030297;28;20041;-76
2023/03/04 08:07:15;;;;;;;66.97;38.50;;;;;;;;;;5029035;28;20072;-76
2023/03/04 08:09:41;;;;;;;72.68;39.65;;;;;;;;;;5028498;28;20029;-76
2023/03/04 08:12:07;;;;;;;71.05;40.47;;;;;;;;;;5029077;28;20033;-76
2023/03/04 08:14:34;;;;;;;70.85;43.15;;;;;;;;;;5028595;28;20040;-76
2023/03/04 08:17:00;;;;;;;75.90;43.20;;;;;;;;;;5028944;28;20025;-76
2023/03/04 08:19:26;;;;;;;70.85;42.35;;;;;;;;;;5028119;28;20076;-76
2023/03/04 08:21:52;;;;;;;78.60;45.17;;;;;;;;;;5018826;28;20550;-76
2023/03/04 08:24:18;;;;;;;71.63;40.90;;;;;;;;;;5026672;28;20040;-76
2023/03/04 08:26:45;;;;;;;71.28;39.65;;;;;;;;;;5028835;28;20052;-76
2023/03/04 08:29:13;;;;;;;70.55;38.33;;;;;;;;;;5022485;28;20042;-77
2023/03/04 08:31:39;;;;;;;72.45;42.03;;;;;;;;;;5027499;28;20038;-76
2023/03/04 08:34:06;;;;;;;70.18;38.95;;;;;;;;;;5026297;28;20057;-76
2023/03/04 08:36:32;;;;;;;70.63;38.95;;;;;;;;;;5028728;28;20026;-76
2023/03/04 08:38:58;;;;;;;73.15;42.95;;;;;;;;;;5031516;28;20363;-76
2023/03/04 08:41:26;;;;;;;69.57;37.60;;;;;;;;;;5044202;28;20033;-77
2023/03/04 08:43:52;;;;;;;67.38;39.35;;;;;;;;;;5028339;28;20025;-78
2023/03/04 08:46:18;;;;;;;75.38;38.65;;;;;;;;;;5024805;28;20049;-76
2023/03/04 08:48:44;;;;;;;73.03;41.88;;;;;;;;;;5033309;28;20033;-76
2023/03/04 08:51:11;;;;;;;71.72;40.83;;;;;;;;;;5032767;28;20033;-76
2023/03/04 08:53:37;;;;;;;73.70;43.35;;;;;;;;;;5033152;28;20080;-76
2023/03/04 08:56:04;;;;;;;67.03;39.47;;;;;;;;;;5030433;28;20042;-77
2023/03/04 08:58:30;;;;;;;61.30;33.50;;;;;;;;;;5031852;28;20108;-76
2023/03/04 09:00:56;;;;;;;60.13;34.35;;;;;;;;;;5037009;28;20025;-76
2023/03/04 09:03:21;;;;;;;57.75;33.75;;;;;;;;;;5039276;28;20044;-77
2023/03/04 09:05:48;;;;;;;57.42;32.40;;;;;;;;;;5029873;28;20195;-76
2023/03/04 09:08:15;;;;;;;53.97;32.42;;;;;;;;;;5030865;28;20387;-76
2023/03/04 09:10:41;;;;;;;56.22;32.28;;;;;;;;;;5028756;28;20044;-77
2023/03/04 09:13:10;;;;;;;54.85;30.35;;;;;;;;;;5030683;28;20029;-77
2023/03/04 09:15:36;;;;;;;52.08;30.92;;;;;;;;;;5025915;28;20063;-77
2023/03/04 09:18:03;;;;;;;57.15;31.60;;;;;;;;;;5029571;28;20513;-76
2023/03/04 09:20:29;;;;;;;68.18;36.80;;;;;;;;;;5027541;28;20034;-76
2023/03/04 09:22:55;;;;;;;53.92;34.03;;;;;;;;;;5032139;28;20032;-76
2023/03/04 09:25:21;;;;;;;49.10;27.55;;;;;;;;;;5031456;28;20471;-76
2023/03/04 09:27:47;;;;;;;56.33;29.00;;;;;;;;;;5031426;28;20379;-77
2023/03/04 09:30:13;;;;;;;52.67;28.95;;;;;;;;;;5032059;28;20041;-77
2023/03/04 09:32:40;;;;;;;51.72;30.08;;;;;;;;;;5031922;28;20033;-77
2023/03/04 09:35:06;;;;;;;46.22;26.77;;;;;;;;;;5021713;28;20037;-77
2023/03/04 09:37:32;;;;;;;48.58;27.23;;;;;;;;;;5031815;28;20036;-78
2023/03/04 09:39:58;;;;;;;52.45;29.08;;;;;;;;;;5032113;28;20116;-77
2023/03/04 09:42:26;;;;;;;45.97;29.08;;;;;;;;;;5031444;28;20148;-77
2023/03/04 09:44:52;;;;;;;48.00;27.65;;;;;;;;;;5022398;28;20146;-76
2023/03/04 09:47:19;;;;;;;49.92;26.80;;;;;;;;;;5031204;28;20029;-76
2023/03/04 09:49:48;;;;;;;50.03;28.55;;;;;;;;;;5026291;28;20057;-76
2023/03/04 09:52:18;;;;;;;48.25;27.23;;;;;;;;;;5029982;28;20136;-76
2023/03/04 09:54:47;;;;;;;48.97;27.83;;;;;;;;;;5023332;28;20033;-76
2023/03/04 09:57:33;;;;;;;47.45;27.15;;;;;;;;;;5030814;28;20021;-76
2023/03/04 10:00:25;;;;;;;49.83;28.63;;;;;;;;;;5017905;28;20041;-77
2023/03/04 10:03:10;;;;;;;45.63;27.58;;;;;;;;;;5026813;28;20562;-77
2023/03/04 10:05:40;;;;;;;51.33;26.90;;;;;;;;;;5027342;28;20029;-76
2023/03/04 10:08:25;;;;;;;46.60;26.08;;;;;;;;;;5030017;28;20037;-76
2023/03/04 10:10:52;;;;;;;45.72;27.17;;;;;;;;;;5028666;28;20555;-76
2023/03/04 10:13:21;;;;;;;43.15;24.77;;;;;;;;;;5029500;28;20037;-77
2023/03/04 10:15:49;;;;;;;44.90;24.88;;;;;;;;;;5027836;28;20045;-76
2023/03/04 10:18:16;;;;;;;47.08;28.67;;;;;;;;;;5030997;28;20136;-76
2023/03/04 10:20:54;;;;;;;49.75;28.23;;;;;;;;;;5030320;28;20025;-76
2023/03/04 10:23:30;;;;;;;46.80;27.15;;;;;;;;;;5026220;28;20496;-76
2023/03/04 10:25:58;;;;;;;42.72;27.15;;;;;;;;;;5023152;28;20033;-76
2023/03/04 10:28:26;;;;;;;46.08;26.95;;;;;;;;;;5028732;28;20045;-76
2023/03/04 10:31:04;;;;;;;48.10;26.75;;;;;;;;;;5029499;28;20033;-76
2023/03/04 10:33:33;;;;;;;45.30;27.40;;;;;;;;;;5024728;28;20075;-76
2023/03/04 10:35:59;;;;;;;45.88;28.10;;;;;;;;;;5027306;28;20029;-77
2023/03/04 10:38:26;;;;;;;44.22;27.50;;;;;;;;;;5027145;28;20033;-76
2023/03/04 10:40:52;;;;;;;46.67;26.27;;;;;;;;;;5028357;28;20120;-76
2023/03/04 10:43:19;;;;;;;50.60;28.63;;;;;;;;;;5028099;28;20113;-76
2023/03/04 10:45:45;;;;;;;46.67;27.85;;;;;;;;;;5024928;28;20119;-76
2023/03/04 10:48:19;;;;;;;44.60;25.92;;;;;;;;;;5030419;28;20037;-76
2023/03/04 10:50:45;;;;;;;49.53;26.90;;;;;;;;;;5025087;28;20033;-76
2023/03/04 10:53:22;;;;;;;43.97;27.80;;;;;;;;;;5023113;28;20087;-76
2023/03/04 10:55:48;;;;;;;43.88;26.65;;;;;;;;;;5029408;28;20033;-76
2023/03/04 10:58:17;;;;;;;43.60;27.67;;;;;;;;;;5029531;28;20030;-76
2023/03/04 11:00:44;;;;;;;46.15;27.38;;;;;;;;;;5029253;28;20057;-76
2023/03/04 11:03:21;;;;;;;43.55;25.98;;;;;;;;;;5028300;28;20038;-76
2023/03/04 11:05:47;;;;;;;45.83;27.38;;;;;;;;;;5029857;28;20038;-76
2023/03/04 11:08:21;;;;;;;46.85;27.48;;;;;;;;;;5022891;28;20079;-76
2023/03/04 11:10:48;;;;;;;44.60;26.52;;;;;;;;;;5027788;28;20038;-76
2023/03/04 11:13:14;;;;;;;45.13;26.85;;;;;;;;;;5029145;28;20040;-76
2023/03/04 11:15:54;;;;;;;46.10;28.95;;;;;;;;;;5027452;28;20442;-76
2023/03/04 11:18:26;;;;;;;44.47;27.30;;;;;;;;;;5024399;28;20537;-76
2023/03/04 11:20:52;;;;;;;51.60;28.13;;;;;;;;;;5025299;28;20034;-76
2023/03/04 11:23:25;;;;;;;44.53;28.20;;;;;;;;;;5023773;28;20338;-77
2023/03/04 11:26:14;;;;;;;41.42;26.55;;;;;;;;;;5030666;28;20041;-76
2023/03/04 11:28:59;;;;;;;45.60;28.05;;;;;;;;;;5009949;28;20689;-76
2023/03/04 11:31:28;;;;;;;42.35;27.02;;;;;;;;;;5027411;28;20037;-77
2023/03/04 11:33:54;;;;;;;49.17;28.95;;;;;;;;;;5029403;28;20029;-76
2023/03/04 11:36:23;;;;;;;45.95;29.42;;;;;;;;;;5023226;28;20428;-76
2023/03/04 11:38:49;;;;;;;43.42;27.25;;;;;;;;;;5019555;28;20075;-77
2023/03/04 11:41:18;;;;;;;44.83;27.08;;;;;;;;;;5026487;28;20091;-77
2023/03/04 11:43:45;;;;;;;39.47;26.20;;;;;;;;;;5026674;28;20800;-76
2023/03/04 11:46:17;;;;;;;43.83;28.13;;;;;;;;;;5024103;28;20122;-76
2023/03/04 11:49:03;;;;;;;46.35;28.27;;;;;;;;;;5028746;28;20705;-76
2023/03/04 11:51:30;;;;;;;43.55;27.85;;;;;;;;;;5019808;28;20060;-76
2023/03/04 11:54:05;;;;;;;45.15;29.02;;;;;;;;;;5025214;28;20638;-76
2023/03/04 11:56:34;;;;;;;43.80;26.35;;;;;;;;;;5023317;28;20087;-76
2023/03/04 11:59:06;;;;;;;43.03;28.33;;;;;;;;;;5028863;28;20084;-76
2023/03/04 12:01:43;;;;;;;43.72;28.05;;;;;;;;;;5027682;28;20151;-76
2023/03/04 12:04:20;;;;;;;44.17;28.38;;;;;;;;;;5026436;28;20375;-76
2023/03/04 12:06:55;;;;;;;50.63;30.10;;;;;;;;;;5020165;28;20063;-76
2023/03/04 12:09:31;;;;;;;45.92;29.23;;;;;;;;;;5027110;28;20041;-76
2023/03/04 12:12:05;;;;;;;45.53;29.10;;;;;;;;;;5027024;28;20080;-76
2023/03/04 12:14:40;;;;;;;46.50;28.58;;;;;;;;;;5022781;28;20053;-76
2023/03/04 12:17:19;;;;;;;47.78;29.45;;;;;;;;;;5022175;28;20048;-76
2023/03/04 12:20:05;;;;;;;43.35;27.30;;;;;;;;;;5027374;28;20210;-76
2023/03/04 12:22:41;;;;;;;45.83;27.70;;;;;;;;;;5027608;28;20427;-76
2023/03/04 12:25:10;;;;;;;45.28;28.63;;;;;;;;;;5025630;28;20193;-76
2023/03/04 12:27:42;;;;;;;43.28;27.52;;;;;;;;;;5017718;28;20395;-77
2023/03/04 12:30:27;;;;;;;43.97;29.73;;;;;;;;;;5020310;28;20124;-76
2023/03/04 12:32:57;;;;;;;45.35;26.80;;;;;;;;;;5024640;28;20132;-76
2023/03/04 12:35:38;;;;;;;51.95;28.77;;;;;;;;;;5017540;28;20065;-76
2023/03/04 12:38:07;;;;;;;49.30;29.30;;;;;;;;;;5027298;28;20022;-77
2023/03/04 12:40:39;;;;;;;44.75;27.48;;;;;;;;;;5023792;28;20459;-76
2023/03/04 12:43:11;;;;;;;51.05;30.95;;;;;;;;;;5025572;28;20101;-77
2023/03/04 12:45:37;;;;;;;74.85;33.13;;;;;;;;;;5016822;28;20050;-76
2023/03/04 12:48:15;;;;;;;52.70;34.05;;;;;;;;;;5027400;28;20076;-76
2023/03/04 12:50:54;;;;;;;54.33;32.72;;;;;;;;;;5024146;28;20041;-77
2023/03/04 12:53:25;;;;;;;52.97;32.33;;;;;;;;;;5026493;28;20033;-76
2023/03/04 12:55:53;;;;;;;52.67;32.35;;;;;;;;;;5019593;28;20542;-76
2023/03/04 12:58:21;;;;;;;55.20;33.83;;;;;;;;;;5024514;28;20025;-76
2023/03/04 13:01:02;;;;;;;52.85;33.20;;;;;;;;;;5027817;28;20072;-76
2023/03/04 13:03:28;;;;;;;55.60;32.47;;;;;;;;;;5027608;28;20533;-76
2023/03/04 13:05:56;;;;;;;56.60;33.92;;;;;;;;;;5022889;28;20029;-76
2023/03/04 13:08:33;;;;;;;57.85;33.60;;;;;;;;;;5027071;28;20029;-76
2023/03/04 13:11:22;;;;;;;56.53;33.47;;;;;;;;;;5027848;28;20368;-76
2023/03/04 13:14:00;;;;;;;56.03;34.97;;;;;;;;;;5004955;28;20045;-76
2023/03/04 13:16:40;;;;;;;54.42;34.63;;;;;;;;;;5021440;28;20037;-76
2023/03/04 13:19:26;;;;;;;48.83;31.48;;;;;;;;;;5015988;28;20413;-76
2023/03/04 13:21:53;;;;;;;53.15;31.77;;;;;;;;;;4996322;28;20128;-76
2023/03/04 13:24:38;;;;;;;47.42;31.05;;;;;;;;;;5025983;28;20026;-76
2023/03/04 13:27:22;;;;;;;49.53;31.58;;;;;;;;;;5025681;28;20071;-76
2023/03/04 13:29:49;;;;;;;55.35;33.92;;;;;;;;;;5026108;28;20099;-76
2023/03/04 13:32:34;;;;;;;56.08;35.65;;;;;;;;;;5025750;28;20043;-76
2023/03/04 13:35:00;;;;;;;59.42;35.80;;;;;;;;;;5027457;28;20514;-76
2023/03/04 13:37:26;;;;;;;57.22;34.83;;;;;;;;;;5030785;28;20033;-76
2023/03/04 13:40:11;;;;;;;55.72;34.30;;;;;;;;;;5030523;28;20042;-76
2023/03/04 13:42:38;;;;;;;53.80;35.72;;;;;;;;;;5026823;28;20147;-77
2023/03/04 13:45:05;;;;;;;49.42;29.77;;;;;;;;;;5028202;28;20045;-77
2023/03/04 13:47:41;;;;;;;53.90;33.08;;;;;;;;;;5027585;28;20037;-76
2023/03/04 13:50:42;;;;;;;54.58;32.55;;;;;;;;;;5031278;28;20041;-76
2023/03/04 13:53:22;;;;;;;51.50;33.47;;;;;;;;;;4947908;29;20039;-76
2023/03/04 13:56:01;;;;;;;50.65;32.55;;;;;;;;;;5022048;28;20052;-76
2023/03/04 13:58:27;;;;;;;50.40;32.75;;;;;;;;;;5026071;28;20041;-76
2023/03/04 14:00:54;;;;;;;52.85;32.90;;;;;;;;;;5029776;28;20360;-76
2023/03/04 14:03:22;;;;;;;50.17;31.38;;;;;;;;;;5027558;28;20044;-76
2023/03/04 14:06:08;;;;;;;51.55;30.48;;;;;;;;;;5030085;28;20037;-76
2023/03/04 14:08:34;;;;;;;47.67;29.92;;;;;;;;;;5024501;28;20038;-76
2023/03/04 14:11:00;;;;;;;49.30;31.35;;;;;;;;;;5028331;28;20070;-76
2023/03/04 14:13:27;;;;;;;51.85;31.13;;;;;;;;;;5026489;28;20029;-76
2023/03/04 14:15:57;;;;;;;57.42;36.25;;;;;;;;;;5027461;28;20021;-76
2023/03/04 14:18:26;;;;;;;53.88;32.47;;;;;;;;;;5025455;28;20029;-76
2023/03/04 14:20:57;;;;;;;50.10;30.38;;;;;;;;;;5026222;28;20789;-76
2023/03/04 14:23:23;;;;;;;48.03;30.83;;;;;;;;;;5027112;28;20025;-76